Time;durP1;ratioP1;P1;durP2;ratioP2;P2;SDS_P1;SDS_P2;PMS_P1;PMS_P2;Temp;Humidity;BMP_temperature;BMP_pressure;BME280_temperature;BME280_humidity;BME280_pressure;Samples;Min_cycle;Max_cycle;Signal;HPM_P1;HPM_P2
2021/01/01 00:01:44;;;;;;;40.25;23.18;;;;;;;2.02;93.90;100168.66;1702871;84;21712;-76
2021/01/01 00:04:49;;;;;;;40.58;24.05;;;;;;;2.03;93.69;100166.81;1702885;84;21280;-76
2021/01/01 00:07:54;;;;;;;45.90;23.02;;;;;;;1.96;93.45;100155.64;1702316;84;22027;-76
2021/01/01 00:10:59;;;;;;;42.03;22.75;;;;;;;1.93;93.41;100161.77;1701986;84;21347;-76
2021/01/01 00:14:05;;;;;;;41.20;22.17;;;;;;;1.94;93.44;100158.12;1701936;84;21312;-75
2021/01/01 00:17:13;;;;;;;37.93;20.45;;;;;;;1.95;93.42;100157.98;1701879;84;21307;-77
2021/01/01 00:20:19;;;;;;;30.10;19.12;;;;;;;1.96;93.37;100158.84;1700508;84;21838;-77
2021/01/01 00:23:25;;;;;;;31.10;18.12;;;;;;;1.92;93.28;100152.83;1702613;82;21378;-76
2021/01/01 00:26:31;;;;;;;28.70;18.00;;;;;;;1.89;93.19;100153.59;1701870;84;21371;-76
2021/01/01 00:29:36;;;;;;;27.45;17.27;;;;;;;1.82;93.18;100155.05;1701920;84;21351;-76
2021/01/01 00:32:43;;;;;;;33.85;19.25;;;;;;;1.77;93.24;100150.88;1701125;84;21339;-76
2021/01/01 00:35:49;;;;;;;30.70;19.17;;;;;;;1.77;93.35;100148.19;1700922;84;21331;-75
2021/01/01 00:38:58;;;;;;;27.80;18.70;;;;;;;1.74;93.38;100144.41;1701839;84;21331;-76
2021/01/01 00:42:03;;;;;;;33.05;20.02;;;;;;;1.70;93.37;100148.33;1702896;84;21272;-76
2021/01/01 00:45:10;;;;;;;30.45;18.95;;;;;;;1.65;93.41;100151.04;1702519;84;21320;-76
2021/01/01 00:48:15;;;;;;;32.90;17.52;;;;;;;1.61;93.50;100146.87;1702851;84;21209;-76
2021/01/01 00:51:20;;;;;;;29.90;19.35;;;;;;;1.58;93.63;100141.71;1702841;84;21267;-76
2021/01/01 00:54:25;;;;;;;28.02;19.20;;;;;;;1.60;93.69;100150.52;1702741;84;21315;-76
2021/01/01 00:57:30;;;;;;;30.50;17.65;;;;;;;1.60;93.73;100146.47;1702983;84;21273;-76
2021/01/01 01:00:35;;;;;;;27.02;17.75;;;;;;;1.60;93.68;100141.97;1702890;84;21276;-76
2021/01/01 01:03:40;;;;;;;30.08;18.80;;;;;;;1.56;93.52;100141.84;1701344;84;21339;-76
2021/01/01 01:06:47;;;;;;;24.25;15.38;;;;;;;1.52;93.42;100136.33;1700659;84;21366;-76
2021/01/01 01:09:53;;;;;;;26.65;17.35;;;;;;;1.52;93.44;100131.79;1700818;84;21323;-76
2021/01/01 01:12:58;;;;;;;22.32;13.25;;;;;;;1.53;93.40;100129.95;1700755;84;21720;-76
2021/01/01 01:16:04;;;;;;;24.02;15.72;;;;;;;1.56;93.37;100126.16;1702014;84;21316;-75
2021/01/01 01:19:10;;;;;;;21.95;14.03;;;;;;;1.54;93.22;100116.33;1701957;84;21299;-76
2021/01/01 01:22:16;;;;;;;26.20;16.70;;;;;;;1.53;93.11;100123.20;1701816;84;21312;-76
2021/01/01 01:25:22;;;;;;;27.15;16.50;;;;;;;1.49;93.08;100120.39;1702417;82;21323;-76
2021/01/01 01:28:28;;;;;;;24.20;15.38;;;;;;;1.46;93.01;100112.07;1701998;84;21319;-76
2021/01/01 01:31:33;;;;;;;30.55;17.37;;;;;;;1.42;92.99;100107.91;1702046;84;21260;-75
2021/01/01 01:34:39;;;;;;;28.87;17.60;;;;;;;1.38;93.02;100108.27;1701796;84;21351;-76
2021/01/01 01:37:45;;;;;;;25.57;16.35;;;;;;;1.33;93.10;100101.05;1702002;84;21316;-76
2021/01/01 01:40:50;;;;;;;25.48;15.55;;;;;;;1.28;93.22;100110.35;1701255;84;21339;-76
2021/01/01 01:43:55;;;;;;;25.12;15.93;;;;;;;1.24;93.37;100108.88;1701115;84;21366;-76
2021/01/01 01:47:02;;;;;;;29.35;18.10;;;;;;;1.22;93.47;100105.45;1701957;84;21324;-76
2021/01/01 01:50:09;;;;;;;27.75;16.70;;;;;;;1.20;93.53;100112.78;1702017;84;21307;-76
2021/01/01 01:53:15;;;;;;;24.10;16.05;;;;;;;1.17;93.60;100105.43;1701596;84;21331;-76
2021/01/01 01:56:20;;;;;;;30.52;17.30;;;;;;;1.17;93.69;100108.98;1701228;84;21323;-76
2021/01/01 01:59:25;;;;;;;29.98;17.05;;;;;;;1.18;93.79;100105.83;1701932;84;21308;-76
2021/01/01 02:02:32;;;;;;;28.40;18.05;;;;;;;1.20;93.83;100103.36;1701916;84;21311;-76
2021/01/01 02:05:38;;;;;;;24.75;15.65;;;;;;;1.24;93.85;100104.83;1701941;84;21197;-77
2021/01/01 02:08:44;;;;;;;26.40;16.65;;;;;;;1.27;93.82;100101.91;1701954;84;21756;-76
2021/01/01 02:11:50;;;;;;;26.65;17.42;;;;;;;1.33;93.84;100099.70;1700953;84;21901;-76
2021/01/01 02:14:57;;;;;;;27.02;15.23;;;;;;;1.39;93.72;100100.55;1700741;84;21339;-77
2021/01/01 02:18:04;;;;;;;26.02;16.37;;;;;;;1.41;93.53;100099.92;1682233;84;21205;-77
2021/01/01 02:21:09;;;;;;;24.72;15.75;;;;;;;1.38;93.22;100092.95;1702837;84;21160;-76
2021/01/01 02:24:17;;;;;;;24.47;15.75;;;;;;;1.35;93.05;100092.33;1702893;84;21692;-76
2021/01/01 02:27:23;;;;;;;25.45;14.73;;;;;;;1.31;92.94;100089.02;1703077;82;21193;-77
2021/01/01 02:30:31;;;;;;;23.60;14.83;;;;;;;1.31;92.92;100086.82;1701518;84;21205;-77
2021/01/01 02:33:37;;;;;;;19.92;13.65;;;;;;;1.30;92.90;100076.53;1701645;84;21327;-76
2021/01/01 02:36:42;;;;;;;21.82;13.10;;;;;;;1.29;92.86;100078.87;1700538;84;21237;-76
2021/01/01 02:39:48;;;;;;;23.22;15.30;;;;;;;1.28;92.87;100079.36;1701929;84;21312;-76
2021/01/01 02:42:54;;;;;;;23.80;13.70;;;;;;;1.31;92.86;100081.43;1700662;84;21375;-76
2021/01/01 02:45:58;;;;;;;21.68;14.47;;;;;;;1.30;92.75;100085.11;1701936;84;21356;-77
2021/01/01 02:49:04;;;;;;;24.80;15.05;;;;;;;1.28;92.66;100099.57;1702030;84;21736;-76
2021/01/01 02:52:08;;;;;;;24.07;15.20;;;;;;;1.27;92.62;100101.02;1701978;84;21315;-76
2021/01/01 02:55:16;;;;;;;25.35;15.48;;;;;;;1.32;92.67;100093.92;1702888;84;21340;-76
2021/01/01 02:58:21;;;;;;;24.02;15.23;;;;;;;1.39;92.77;100085.72;1702709;84;21315;-76
2021/01/01 03:01:20;;;;;;;18.73;10.78;;;;;;;1.49;92.81;100082.65;1702226;84;21233;-76
2021/01/01 03:04:25;;;;;;;23.67;15.68;;;;;;;1.57;92.54;100095.03;1701460;84;21337;-77
2021/01/01 03:07:31;;;;;;;22.32;14.43;;;;;;;1.60;92.23;100091.20;1701927;84;21312;-76
2021/01/01 03:10:37;;;;;;;24.40;15.58;;;;;;;1.65;92.05;100097.97;1700636;84;21319;-76
2021/01/01 03:13:43;;;;;;;22.20;14.40;;;;;;;1.70;91.82;100097.09;1701861;84;21170;-76
2021/01/01 03:16:49;;;;;;;23.32;15.10;;;;;;;1.76;91.58;100107.88;1701903;84;21858;-76
2021/01/01 03:19:54;;;;;;;24.40;14.85;;;;;;;1.81;91.28;100102.10;1702062;84;21871;-76
2021/01/01 03:23:01;;;;;;;24.00;14.75;;;;;;;1.84;90.99;100093.28;1702904;84;21165;-76
2021/01/01 03:26:07;;;;;;;21.25;13.88;;;;;;;1.86;90.67;100086.39;1702966;84;21268;-76
2021/01/01 03:29:11;;;;;;;23.67;15.32;;;;;;;1.84;90.29;100082.98;1702905;84;21212;-76
2021/01/01 03:32:16;;;;;;;18.85;12.73;;;;;;;1.83;90.07;100081.24;1702886;84;21327;-75
2021/01/01 03:35:22;;;;;;;21.15;13.18;;;;;;;1.87;90.03;100075.47;1702075;84;21264;-76
2021/01/01 03:38:28;;;;;;;19.82;13.10;;;;;;;1.84;89.67;100077.59;1702011;84;21597;-76
2021/01/01 03:41:34;;;;;;;21.02;13.48;;;;;;;1.79;89.57;100072.57;1701886;84;21757;-76
2021/01/01 03:44:42;;;;;;;23.98;15.05;;;;;;;1.77;89.48;100086.16;1701623;84;21319;-76
2021/01/01 03:47:48;;;;;;;20.97;13.70;;;;;;;1.79;89.50;100081.52;1701924;84;21311;-76
2021/01/01 03:50:53;;;;;;;20.45;14.15;;;;;;;1.87;89.53;100074.62;1701788;84;21376;-76
2021/01/01 03:53:59;;;;;;;20.00;12.33;;;;;;;1.89;89.33;100074.02;1701934;84;21744;-77
2021/01/01 03:57:06;;;;;;;22.07;13.38;;;;;;;1.88;89.03;100079.02;1701836;84;21225;-76
2021/01/01 04:00:18;;;;;;;23.32;13.38;;;;;;;1.80;88.66;100078.33;1701866;84;21193;-76
2021/01/01 04:03:24;;;;;;;25.70;14.60;;;;;;;1.68;88.51;100081.52;1702882;84;21272;-76
2021/01/01 04:06:29;;;;;;;22.95;14.95;;;;;;;1.64;88.56;100083.23;1702913;84;21162;-76
2021/01/01 04:09:35;;;;;;;22.62;14.35;;;;;;;1.62;88.71;100087.42;1702737;84;21284;-76
2021/01/01 04:12:40;;;;;;;24.57;14.65;;;;;;;1.62;88.80;100077.98;1702835;84;21303;-76
2021/01/01 04:15:45;;;;;;;22.87;15.10;;;;;;;1.64;88.95;100082.75;1702854;84;21819;-76
2021/01/01 04:18:51;;;;;;;22.82;14.33;;;;;;;1.68;88.95;100086.91;1702794;84;21316;-76
2021/01/01 04:21:57;;;;;;;25.65;13.95;;;;;;;1.69;88.78;100081.88;1702789;84;21157;-76
2021/01/01 04:25:03;;;;;;;23.07;14.95;;;;;;;1.64;88.57;100077.35;1702773;84;21283;-76
2021/01/01 04:28:09;;;;;;;22.48;12.93;;;;;;;1.59;88.57;100087.66;1707611;82;21269;-76
2021/01/01 04:31:14;;;;;;;20.85;13.08;;;;;;;1.56;88.70;100091.12;1726471;83;21287;-76
2021/01/01 04:34:19;;;;;;;26.10;14.47;;;;;;;1.53;88.73;100081.42;1725131;83;21324;-76
2021/01/01 04:37:26;;;;;;;28.25;15.35;;;;;;;1.47;88.82;100081.93;1726459;83;21317;-77
2021/01/01 04:40:32;;;;;;;22.75;14.05;;;;;;;1.43;89.04;100081.80;1726475;83;21364;-76
2021/01/01 04:43:39;;;;;;;40.17;16.50;;;;;;;1.41;89.22;100080.59;1726078;83;21210;-77
2021/01/01 04:46:46;;;;;;;27.07;15.80;;;;;;;1.40;89.31;100073.46;1725473;83;21238;-76
2021/01/01 04:49:52;;;;;;;25.37;15.15;;;;;;;1.40;89.40;100081.55;1726443;83;21373;-77
2021/01/01 04:52:57;;;;;;;22.50;13.62;;;;;;;1.39;89.44;100093.81;1726614;83;21202;-76
2021/01/01 04:56:03;;;;;;;31.82;16.73;;;;;;;1.40;89.50;100093.67;1725914;83;21350;-76
2021/01/01 04:59:08;;;;;;;29.80;16.93;;;;;;;1.36;89.53;100096.25;1727292;83;21297;-76
2021/01/01 05:02:12;;;;;;;24.07;15.13;;;;;;;1.34;89.65;100094.17;1727480;83;21861;-76
2021/01/01 05:05:18;;;;;;;29.32;16.07;;;;;;;1.31;89.77;100102.49;1727465;83;21203;-76
2021/01/01 05:08:24;;;;;;;29.15;15.15;;;;;;;1.33;89.94;100111.33;1726505;83;21314;-75
2021/01/01 05:11:31;;;;;;;32.10;17.15;;;;;;;1.33;90.01;100102.39;1726520;83;21332;-76
2021/01/01 05:14:37;;;;;;;30.62;16.10;;;;;;;1.30;90.05;100103.48;1725857;83;21888;-76
2021/01/01 05:17:43;;;;;;;27.48;15.98;;;;;;;1.24;90.13;100115.61;1726439;83;21494;-76
2021/01/01 05:20:51;;;;;;;31.30;16.93;;;;;;;1.20;90.25;100104.70;1726427;83;21195;-75
2021/01/01 05:23:58;;;;;;;26.70;16.55;;;;;;;1.14;90.37;100107.89;1727474;83;21277;-76
2021/01/01 05:27:04;;;;;;;32.15;17.42;;;;;;;1.14;90.58;100103.00;1727451;83;21286;-76
2021/01/01 05:30:10;;;;;;;37.05;20.10;;;;;;;1.14;90.75;100107.04;1697475;82;21745;-76
2021/01/01 05:33:17;;;;;;;42.13;22.35;;;;;;;1.13;90.93;100095.41;1737582;82;21174;-76
2021/01/01 05:36:22;;;;;;;42.98;21.48;;;;;;;1.09;91.17;100090.38;1736574;82;21336;-76
2021/01/01 05:39:30;;;;;;;39.65;21.33;;;;;;;1.06;91.43;100082.53;1737613;82;21277;-76
2021/01/01 05:42:29;;;;;;;38.33;20.25;;;;;;;1.01;91.61;100082.89;1737597;82;21817;-76
2021/01/01 05:45:35;;;;;;;47.23;21.97;;;;;;;0.99;91.72;100089.77;1737442;82;21301;-76
2021/01/01 05:48:41;;;;;;;50.28;23.90;;;;;;;0.98;91.87;100084.47;1736447;82;21332;-76
2021/01/01 05:51:47;;;;;;;45.17;22.85;;;;;;;0.95;91.93;100077.51;1737607;82;21328;-76
2021/01/01 05:54:54;;;;;;;49.03;24.30;;;;;;;0.93;92.10;100073.20;1736936;82;21313;-76
2021/01/01 05:58:00;;;;;;;44.35;21.20;;;;;;;0.88;92.22;100078.95;1737567;82;21293;-75
2021/01/01 06:01:05;;;;;;;57.53;24.82;;;;;;;0.83;92.34;100075.77;1737644;82;21741;-76
2021/01/01 06:04:11;;;;;;;43.63;21.93;;;;;;;0.80;92.55;100071.09;1737611;82;21849;-76
2021/01/01 06:07:18;;;;;;;47.43;23.10;;;;;;;0.74;92.72;100070.61;1737644;82;21257;-76
2021/01/01 06:10:24;;;;;;;42.98;23.02;;;;;;;0.71;93.02;100061.44;1737627;82;21167;-76
2021/01/01 06:13:29;;;;;;;45.05;22.10;;;;;;;0.71;93.39;100052.52;1737608;82;21812;-76
2021/01/01 06:16:35;;;;;;;61.15;31.23;;;;;;;0.72;93.87;100034.88;1737329;82;21199;-76
2021/01/01 06:20:00;;;;;;;96.70;40.43;;;;;;;0.75;94.20;100038.69;1737565;82;21781;-76
2021/01/01 06:23:10;;;;;;;103.07;44.10;;;;;;;0.75;94.41;100033.30;1737001;82;21312;-76
2021/01/01 06:26:18;;;;;;;;;;;;;;;0.75;94.67;100044.53;1739116;82;21301;-76
2021/01/01 06:29:24;;;;;;;86.82;31.30;;;;;;;0.78;94.90;100039.41;1736701;82;20296;-76
2021/01/01 06:32:30;;;;;;;61.37;27.60;;;;;;;0.82;95.15;100035.50;1703818;82;21244;-75
2021/01/01 06:35:35;;;;;;;60.65;24.07;;;;;;;0.82;95.28;100047.13;1702817;84;21331;-75
2021/01/01 06:38:51;;;;;;;52.30;22.77;;;;;;;0.84;95.37;100053.73;1702896;84;21193;-76
2021/01/01 06:41:56;;;;;;;46.10;22.60;;;;;;;0.83;95.48;100056.06;1702954;84;21272;-75
2021/01/01 06:45:02;;;;;;;49.80;22.70;;;;;;;0.84;95.59;100051.89;1702881;84;21264;-76
2021/01/01 06:48:06;;;;;;;41.95;22.55;;;;;;;0.86;95.64;100065.26;1703000;84;21744;-76
2021/01/01 06:51:12;;;;;;;47.88;23.77;;;;;;;0.88;95.75;100076.27;1702905;84;21847;-76
2021/01/01 06:54:19;;;;;;;45.40;22.48;;;;;;;0.92;95.81;100102.47;1665191;84;21894;-76
2021/01/01 06:57:25;;;;;;;50.78;23.80;;;;;;;0.97;95.88;100093.54;1701746;84;21874;-76
2021/01/01 07:00:59;;;;;;;52.33;26.97;;;;;;;1.01;95.96;100072.13;1701899;84;21635;-76
2021/01/01 07:04:06;;;;;;;56.70;27.17;;;;;;;1.01;96.01;100086.45;1701759;84;21319;-76
2021/01/01 07:07:12;;;;;;;62.43;29.95;;;;;;;1.07;96.13;100105.80;1701746;84;21335;-76
2021/01/01 07:10:41;;;;;;;55.95;28.92;;;;;;;1.15;96.29;100102.86;1701745;84;21253;-76
2021/01/01 07:13:58;;;;;;;56.65;26.60;;;;;;;1.26;96.48;100104.20;1702906;84;21288;-76
2021/01/01 07:17:04;;;;;;;45.28;24.95;;;;;;;1.38;96.54;100101.05;1702831;84;21347;-77
2021/01/01 07:20:11;;;;;;;50.83;24.65;;;;;;;1.48;96.37;100090.38;1702882;84;21268;-76
2021/01/01 07:23:18;;;;;;;49.20;25.97;;;;;;;1.62;96.25;100082.52;1683619;84;21280;-76
2021/01/01 07:26:27;;;;;;;45.78;27.02;;;;;;;1.74;96.03;100099.92;1702916;84;21773;-76
2021/01/01 07:29:32;;;;;;;42.60;24.75;;;;;;;1.83;95.61;100090.69;1702929;84;21284;-77
2021/01/01 07:32:37;;;;;;;50.48;27.50;;;;;;;1.88;95.20;100089.81;1704010;82;21752;-77
2021/01/01 07:35:41;;;;;;;43.58;24.47;;;;;;;1.97;94.96;100094.45;1702859;84;21304;-77
2021/01/01 07:38:49;;;;;;;36.20;20.72;;;;;;;2.05;94.76;100108.17;1701655;84;21890;-77
2021/01/01 07:41:54;;;;;;;44.67;24.92;;;;;;;2.15;94.60;100105.07;1702559;84;21866;-77
2021/01/01 07:45:01;;;;;;;39.83;24.05;;;;;;;2.26;94.35;100105.55;1700618;84;21307;-77
2021/01/01 07:48:07;;;;;;;44.27;25.08;;;;;;;2.29;93.92;100087.73;1700695;84;21335;-76
2021/01/01 07:51:17;;;;;;;52.20;28.20;;;;;;;2.30;93.61;100099.73;1701878;84;22532;-77
2021/01/01 07:54:24;;;;;;;47.27;27.77;;;;;;;2.33;93.50;100087.84;1701310;84;21311;-78
2021/01/01 07:57:30;;;;;;;56.23;29.00;;;;;;;2.35;93.47;100083.65;1701863;84;22499;-76
2021/01/01 08:00:44;;;;;;;52.95;27.52;;;;;;;2.36;93.51;100077.29;1701894;84;21334;-77
2021/01/01 08:03:50;;;;;;;47.00;25.85;;;;;;;2.37;93.63;100080.34;1702877;84;21331;-77
2021/01/01 08:06:56;;;;;;;48.92;26.10;;;;;;;2.39;93.56;100079.70;1702560;84;21300;-77
2021/01/01 08:10:02;;;;;;;52.38;28.90;;;;;;;2.42;93.58;100076.77;1703011;84;21272;-77
2021/01/01 08:13:06;;;;;;;57.90;30.65;;;;;;;2.42;93.52;100083.51;1702697;84;21848;-77
2021/01/01 08:16:23;;;;;;;69.25;35.48;;;;;;;2.43;93.56;100073.06;1702015;84;21379;-77
2021/01/01 08:19:31;;;;;;;82.22;40.30;;;;;;;2.39;93.49;100074.31;1700597;84;21391;-76
2021/01/01 08:22:41;;;;;;;83.72;42.67;;;;;;;2.37;93.80;100069.05;1700566;84;21331;-77
2021/01/01 08:25:46;;;;;;;81.43;41.50;;;;;;;2.37;94.20;100101.94;1700974;84;21375;-76
2021/01/01 08:28:52;;;;;;;84.87;38.98;;;;;;;2.34;94.63;100082.80;1701651;84;21624;-77
2021/01/01 08:31:58;;;;;;;66.28;36.28;;;;;;;2.35;95.18;100093.09;1701928;84;21356;-77
2021/01/01 08:35:04;;;;;;;68.90;34.65;;;;;;;2.41;95.64;100088.05;1701387;84;21800;-77
2021/01/01 08:38:24;;;;;;;73.35;33.30;;;;;;;2.45;96.02;100069.77;1701471;84;21216;-76
2021/01/01 08:41:30;;;;;;;65.95;34.67;;;;;;;2.46;96.27;100067.42;1701334;84;21303;-76
2021/01/01 08:44:35;;;;;;;66.22;34.85;;;;;;;2.48;96.58;100055.98;1700992;84;21205;-77
2021/01/01 08:47:54;;;;;;;64.95;32.80;;;;;;;2.51;96.83;100069.23;1700131;84;21421;-76
2021/01/01 08:50:59;;;;;;;61.08;32.15;;;;;;;2.54;97.04;100077.05;1700424;84;21315;-76
2021/01/01 08:54:05;;;;;;;52.98;28.60;;;;;;;2.57;97.25;100061.95;1701467;84;21271;-76
2021/01/01 08:57:10;;;;;;;62.05;32.80;;;;;;;2.62;97.41;100075.91;1701432;84;21280;-77
2021/01/01 09:00:17;;;;;;;57.83;31.25;;;;;;;2.67;97.45;100071.47;1701442;84;21311;-76
2021/01/01 09:03:23;;;;;;;57.65;31.48;;;;;;;2.72;97.44;100074.13;1701421;84;21320;-77
2021/01/01 09:06:29;;;;;;;51.70;26.68;;;;;;;2.76;97.42;100085.03;1701508;84;21275;-77
2021/01/01 09:09:39;;;;;;;50.60;27.55;;;;;;;2.75;97.40;100073.88;1699222;84;21311;-76
2021/01/01 09:12:46;;;;;;;56.23;28.53;;;;;;;2.76;97.47;100057.17;1700813;84;21331;-76
2021/01/01 09:15:53;;;;;;;55.33;29.23;;;;;;;2.79;97.64;100046.97;1700428;84;21303;-77
2021/01/01 09:18:58;;;;;;;55.75;29.85;;;;;;;2.83;97.69;100042.66;1699630;84;21335;-77
2021/01/01 09:22:24;;;;;;;52.17;28.35;;;;;;;2.84;97.60;100047.06;1700508;84;21315;-77
2021/01/01 09:25:30;;;;;;;55.15;27.65;;;;;;;2.84;97.61;100051.12;1700513;84;21315;-77
2021/01/01 09:28:36;;;;;;;55.25;27.93;;;;;;;2.84;97.60;100037.61;1701468;84;21196;-76
2021/01/01 09:31:44;;;;;;;55.52;29.57;;;;;;;2.83;97.56;100034.55;1700901;84;21311;-77
2021/01/01 09:34:49;;;;;;;52.75;27.95;;;;;;;2.83;97.44;100035.91;1702709;82;21303;-77
2021/01/01 09:38:03;;;;;;;52.65;28.35;;;;;;;2.86;97.44;100032.92;1701997;84;21843;-76
2021/01/01 09:41:08;;;;;;;53.25;28.02;;;;;;;2.93;97.47;100036.81;1700760;84;21328;-76
2021/01/01 09:44:15;;;;;;;51.63;25.55;;;;;;;2.94;97.36;100030.41;1702001;84;21372;-76
2021/01/01 09:47:20;;;;;;;50.15;26.07;;;;;;;2.98;97.36;100026.45;1701994;84;21252;-76
2021/01/01 09:50:27;;;;;;;54.27;27.62;;;;;;;3.01;97.31;100014.89;1701315;84;21759;-76
2021/01/01 09:53:33;;;;;;;58.65;27.58;;;;;;;3.02;97.16;100033.30;1702005;84;21237;-77
2021/01/01 09:56:44;;;;;;;57.20;29.37;;;;;;;3.05;97.11;100024.41;1701957;84;21197;-77
2021/01/01 09:59:50;;;;;;;54.88;28.95;;;;;;;3.11;96.99;100008.67;1701722;84;21216;-76
2021/01/01 10:02:57;;;;;;;48.73;27.45;;;;;;;3.16;96.76;100009.11;1701905;84;21308;-76
2021/01/01 10:06:03;;;;;;;53.30;28.40;;;;;;;3.17;96.49;99998.66;1701942;84;21296;-76
2021/01/01 10:09:09;;;;;;;57.03;27.58;;;;;;;3.18;96.33;100002.56;1701934;84;21307;-76
2021/01/01 10:12:16;;;;;;;55.15;26.57;;;;;;;3.19;96.21;99999.36;1702000;84;21312;-76
2021/01/01 10:15:22;;;;;;;48.33;26.70;;;;;;;3.20;96.20;100006.01;1702024;84;21240;-76
2021/01/01 10:18:28;;;;;;;51.05;27.00;;;;;;;3.21;96.26;99999.60;1702009;84;21740;-76
2021/01/01 10:21:34;;;;;;;48.28;23.57;;;;;;;3.24;96.28;100004.71;1700756;84;21336;-76
2021/01/01 10:24:39;;;;;;;46.92;24.25;;;;;;;3.25;96.28;100007.80;1701925;84;21319;-76
2021/01/01 10:27:45;;;;;;;39.60;22.07;;;;;;;3.29;96.20;100012.41;1701940;84;21355;-76
2021/01/01 10:30:51;;;;;;;44.75;23.42;;;;;;;3.32;96.19;100025.16;1701391;84;21244;-75
2021/01/01 10:33:56;;;;;;;42.38;23.27;;;;;;;3.39;96.20;100037.66;1701950;84;21308;-77
2021/01/01 10:37:02;;;;;;;39.30;22.42;;;;;;;3.49;96.20;100037.69;1701421;84;21221;-77
2021/01/01 10:40:08;;;;;;;40.58;21.62;;;;;;;3.55;96.05;100033.07;1701391;84;21311;-77
2021/01/01 10:43:13;;;;;;;38.53;20.80;;;;;;;3.53;95.70;100035.08;1701423;84;21272;-77
2021/01/01 10:46:23;;;;;;;38.02;19.95;;;;;;;3.44;95.36;100023.73;1700405;84;21201;-77
2021/01/01 10:49:31;;;;;;;36.70;20.68;;;;;;;3.31;95.25;100034.27;1700398;84;21771;-76
2021/01/01 10:52:37;;;;;;;37.13;19.42;;;;;;;3.23;95.39;100029.19;1700441;84;21323;-77
2021/01/01 10:55:44;;;;;;;34.92;19.15;;;;;;;3.21;95.66;100023.08;1700469;84;21197;-76
2021/01/01 10:58:50;;;;;;;33.30;18.27;;;;;;;3.16;95.84;100023.48;1700378;84;21367;-76
2021/01/01 11:02:01;;;;;;;33.98;18.12;;;;;;;3.10;96.11;100020.45;1699414;84;21351;-77
2021/01/01 11:05:06;;;;;;;32.65;18.12;;;;;;;3.06;96.47;100003.67;1699457;84;21338;-77
2021/01/01 11:08:13;;;;;;;32.05;17.85;;;;;;;3.06;96.75;99992.36;1700453;84;21879;-76
2021/01/01 11:11:19;;;;;;;31.62;18.52;;;;;;;3.08;97.04;100016.54;1699949;84;21312;-76
2021/01/01 11:14:42;;;;;;;33.48;18.62;;;;;;;3.06;97.28;100020.73;1700353;84;21316;-76
2021/01/01 12:20:22;;;;;;;149.90;64.80;;;;;;;3.44;99.91;100029.98;1702676;84;21197;-79
2021/01/01 12:25:28;;;;;;;120.72;54.65;;;;;;;3.52;99.99;100019.31;1703422;84;21257;-79
2021/01/01 12:28:34;;;;;;;100.45;45.03;;;;;;;3.52;99.91;100015.76;1703526;84;21656;-80
2021/01/01 12:31:40;;;;;;;70.83;36.03;;;;;;;3.53;99.90;100014.79;1703356;84;21693;-79
2021/01/01 12:34:46;;;;;;;56.02;29.63;;;;;;;3.54;99.92;100009.73;1703302;84;21292;-79
2021/01/01 12:37:51;;;;;;;47.15;25.35;;;;;;;3.54;99.92;100000.27;1704167;82;21842;-80
2021/01/01 12:40:57;;;;;;;42.95;23.02;;;;;;;3.55;99.96;100000.63;1703315;84;21811;-79
2021/01/01 12:44:03;;;;;;;36.50;22.15;;;;;;;3.55;99.94;100006.03;1703277;84;21272;-79
2021/01/01 12:47:08;;;;;;;41.25;22.00;;;;;;;3.57;99.96;100008.08;1703232;84;21271;-79
2021/01/01 12:50:15;;;;;;;31.50;19.10;;;;;;;3.56;99.95;100014.49;1703398;84;21165;-80
2021/01/01 12:53:21;;;;;;;35.30;20.65;;;;;;;3.57;99.98;100012.14;1702569;84;21344;-79
2021/01/01 12:56:26;;;;;;;45.38;24.32;;;;;;;3.58;99.98;100009.82;1702415;84;21319;-79
2021/01/01 12:59:31;;;;;;;39.63;22.22;;;;;;;3.57;100.00;100016.20;1702601;84;21324;-79
2021/01/01 13:02:36;;;;;;;35.15;20.75;;;;;;;3.54;100.00;100022.75;1701197;84;21304;-79
2021/01/01 13:05:43;;;;;;;35.58;21.45;;;;;;;3.52;100.00;100017.11;1701205;84;21180;-79
2021/01/01 13:08:49;;;;;;;35.78;20.82;;;;;;;3.50;100.00;100017.76;1702363;84;21193;-80
2021/01/01 13:11:55;;;;;;;32.98;20.27;;;;;;;3.49;100.00;100025.52;1701576;84;21308;-79
2021/01/01 13:15:01;;;;;;;34.50;20.10;;;;;;;3.50;100.00;100020.47;1702377;84;21181;-79
2021/01/01 13:18:06;;;;;;;35.20;19.48;;;;;;;3.49;100.00;100022.81;1702382;84;21315;-80
2021/01/01 13:21:13;;;;;;;38.02;19.85;;;;;;;3.46;100.00;100017.67;1702411;84;21292;-79
2021/01/01 13:24:18;;;;;;;35.52;20.75;;;;;;;3.45;100.00;100027.64;1703694;84;21201;-79
2021/01/01 13:27:25;;;;;;;34.25;20.23;;;;;;;3.45;100.00;100030.84;1701889;84;21336;-79
2021/01/01 13:30:32;;;;;;;36.42;21.12;;;;;;;3.43;100.00;100042.27;1701690;84;21839;-80
2021/01/01 13:33:37;;;;;;;33.98;18.52;;;;;;;3.41;100.00;100059.14;1701691;84;21524;-80
2021/01/01 13:36:43;;;;;;;33.48;18.87;;;;;;;3.42;100.00;100059.49;1702599;84;21312;-79
2021/01/01 13:39:49;;;;;;;28.65;17.60;;;;;;;3.42;100.00;100070.31;1703882;82;21375;-80
2021/01/01 13:42:57;;;;;;;38.13;19.87;;;;;;;3.42;100.00;100068.45;1702771;84;21335;-80
2021/01/01 13:46:04;;;;;;;33.78;20.00;;;;;;;3.44;100.00;100061.59;1703035;84;21169;-80
2021/01/01 13:49:11;;;;;;;36.35;20.37;;;;;;;3.42;100.00;100067.11;1703119;84;21299;-79
2021/01/01 13:52:18;;;;;;;34.75;18.92;;;;;;;3.38;100.00;100055.34;1702227;84;21300;-80
2021/01/01 13:55:24;;;;;;;30.65;17.45;;;;;;;3.31;100.00;100024.81;1702187;84;21739;-80
2021/01/01 13:58:30;;;;;;;37.33;20.17;;;;;;;3.29;100.00;100010.59;1702189;84;21307;-80
2021/01/01 14:01:37;;;;;;;36.23;20.30;;;;;;;3.26;100.00;99987.88;1701949;84;21248;-80
2021/01/01 14:04:42;;;;;;;40.78;21.42;;;;;;;3.23;100.00;99980.03;1701242;84;21807;-80
2021/01/01 14:07:48;;;;;;;35.20;20.70;;;;;;;3.21;100.00;99972.57;1702524;84;21228;-80
2021/01/01 14:10:55;;;;;;;46.50;24.55;;;;;;;3.20;100.00;99981.68;1703075;84;21224;-79
2021/01/01 14:14:01;;;;;;;41.68;23.32;;;;;;;3.17;100.00;99987.84;1701890;84;21193;-81
2021/01/01 14:17:07;;;;;;;40.15;22.87;;;;;;;3.15;100.00;99996.07;1702732;84;21327;-79
2021/01/01 14:20:15;;;;;;;43.55;25.70;;;;;;;3.15;100.00;100001.97;1702562;84;21926;-79
2021/01/01 14:23:20;;;;;;;39.25;23.75;;;;;;;3.12;100.00;100000.42;1702527;84;21225;-79
2021/01/01 14:26:26;;;;;;;41.55;23.85;;;;;;;3.12;100.00;100000.92;1701165;84;21347;-79
2021/01/01 14:29:32;;;;;;;40.60;23.90;;;;;;;3.13;100.00;100000.77;1702394;84;21850;-80
2021/01/01 14:32:38;;;;;;;35.80;21.73;;;;;;;3.15;100.00;99992.02;1702316;84;21842;-79
2021/01/01 14:35:45;;;;;;;43.35;24.60;;;;;;;3.19;100.00;99991.25;1701286;84;21867;-79
2021/01/01 14:38:52;;;;;;;57.83;31.27;;;;;;;3.20;100.00;99987.09;1701818;84;21783;-79
2021/01/01 14:42:01;;;;;;;78.33;39.83;;;;;;;3.21;100.00;99998.75;1699621;84;21362;-80
2021/01/01 14:45:08;;;;;;;94.75;43.73;;;;;;;3.23;100.00;99996.25;1699528;84;21238;-79
2021/01/01 14:48:14;;;;;;;103.47;45.25;;;;;;;3.27;100.00;100012.56;1700802;84;21838;-80
2021/01/01 14:51:20;;;;;;;96.17;45.80;;;;;;;3.31;100.00;100007.23;1700923;84;21776;-79
2021/01/01 14:54:28;;;;;;;123.85;54.33;;;;;;;3.37;100.00;100015.80;1699970;84;21343;-79
2021/01/01 14:57:33;;;;;;;131.47;55.17;;;;;;;3.40;100.00;100001.52;1700602;84;21342;-80
2021/01/01 15:00:39;;;;;;;125.15;54.70;;;;;;;3.43;100.00;100011.17;1700523;84;21319;-79
2021/01/01 15:03:46;;;;;;;138.82;62.55;;;;;;;3.45;100.00;100010.06;1700231;84;21406;-79
2021/01/01 15:06:52;;;;;;;127.67;55.12;;;;;;;3.45;100.00;100012.77;1699097;84;21328;-80
2021/01/01 15:09:58;;;;;;;129.55;55.92;;;;;;;3.48;100.00;100013.85;1699597;84;21839;-79
2021/01/01 15:13:04;;;;;;;121.02;53.87;;;;;;;3.49;100.00;100012.00;1700458;84;21209;-80
2021/01/01 15:16:09;;;;;;;107.03;47.00;;;;;;;3.50;100.00;100001.03;1700710;84;21299;-80
2021/01/01 15:19:15;;;;;;;73.25;34.73;;;;;;;3.55;100.00;100006.03;1701027;84;21185;-80
2021/01/01 15:22:24;;;;;;;65.50;32.93;;;;;;;3.55;100.00;100001.47;1701001;84;21831;-79